Etihad Airways Virtual Airport Information Service

Zurich Airport

ICAO: LSZH Country: Switzerland
Latitude: 47.4647 Longitude: 8.54917
Latest Arrival : UAE85 (OMDB-LSZH) Latest Departure : ETD74 (LSZH-OMAA)


WX CaptureLIVE
Data provided by noaa.gov | Recorded at 07:54:09

METAR : LSZH 150720Z 05008KT 020V090 9999 FEW040 03/M03 Q1025 NOSIG

TAF : LSZH 150525Z 1506/1612 VRB01KT 9999 FEW055 TX08/1514Z TNM01/1506Z TNM02/1604Z BECMG 1506/1509 05010KT TEMPO 1511/1517 04012G25KT PROB30 TEMPO 1511/1516 4000 SHSNGS BKN014 BECMG 1518/1521 04005KT BECMG 1521/1524 VRB02KT CAVOK BECMG 1606/1609 05010KT


Runway Data for LSZH
Data provided by openaviationdata.com

Runway ID Mag Var Hdg Length Elevation Surface ILS Freq ILS Id ILS Slope

Zurich Airport, Switzerland
Use only for reference purposes